sensor_id;sensor_type;location;lat;lon;timestamp;temperature;humidity
74792;SHT30;63319;46.046;17.802;2023-03-09T00:01:46;20.92;43.92
74792;SHT30;63319;46.046;17.802;2023-03-09T00:04:51;20.91;44.13
74792;SHT30;63319;46.046;17.802;2023-03-09T00:07:56;20.91;44.12
74792;SHT30;63319;46.046;17.802;2023-03-09T00:10:59;20.91;43.84
74792;SHT30;63319;46.046;17.802;2023-03-09T00:14:03;20.88;43.72
74792;SHT30;63319;46.046;17.802;2023-03-09T00:17:06;20.88;44.23
74792;SHT30;63319;46.046;17.802;2023-03-09T00:20:10;20.89;44.36
74792;SHT30;63319;46.046;17.802;2023-03-09T00:23:20;20.89;44.02
74792;SHT30;63319;46.046;17.802;2023-03-09T00:26:25;20.89;44.17
74792;SHT30;63319;46.046;17.802;2023-03-09T00:29:30;20.89;43.91
74792;SHT30;63319;46.046;17.802;2023-03-09T00:32:33;20.85;43.57
74792;SHT30;63319;46.046;17.802;2023-03-09T00:35:37;20.87;44.06
74792;SHT30;63319;46.046;17.802;2023-03-09T00:38:43;20.85;44.01
74792;SHT30;63319;46.046;17.802;2023-03-09T00:41:46;20.84;44.00
74792;SHT30;63319;46.046;17.802;2023-03-09T00:44:49;20.84;44.03
74792;SHT30;63319;46.046;17.802;2023-03-09T00:47:54;20.84;44.19
74792;SHT30;63319;46.046;17.802;2023-03-09T00:50:56;20.82;43.99
74792;SHT30;63319;46.046;17.802;2023-03-09T00:53:59;20.82;44.12
74792;SHT30;63319;46.046;17.802;2023-03-09T00:57:02;20.82;44.12
74792;SHT30;63319;46.046;17.802;2023-03-09T01:00:08;20.82;43.96
74792;SHT30;63319;46.046;17.802;2023-03-09T01:03:12;20.81;43.96
74792;SHT30;63319;46.046;17.802;2023-03-09T01:06:16;20.81;44.00
74792;SHT30;63319;46.046;17.802;2023-03-09T01:09:20;20.79;44.26
74792;SHT30;63319;46.046;17.802;2023-03-09T01:12:23;20.78;43.89
74792;SHT30;63319;46.046;17.802;2023-03-09T01:15:29;20.78;44.17
74792;SHT30;63319;46.046;17.802;2023-03-09T01:18:32;20.78;44.13
74792;SHT30;63319;46.046;17.802;2023-03-09T01:21:36;20.78;44.29
74792;SHT30;63319;46.046;17.802;2023-03-09T01:24:39;20.78;44.21
74792;SHT30;63319;46.046;17.802;2023-03-09T01:27:42;20.79;44.26
74792;SHT30;63319;46.046;17.802;2023-03-09T01:30:45;20.75;43.87
74792;SHT30;63319;46.046;17.802;2023-03-09T01:33:48;20.77;44.02
74792;SHT30;63319;46.046;17.802;2023-03-09T01:36:51;20.75;44.26
74792;SHT30;63319;46.046;17.802;2023-03-09T01:39:54;20.78;44.36
74792;SHT30;63319;46.046;17.802;2023-03-09T01:46:37;20.78;44.26
74792;SHT30;63319;46.046;17.802;2023-03-09T01:49:44;20.79;44.42
74792;SHT30;63319;46.046;17.802;2023-03-09T01:52:50;20.78;44.20
74792;SHT30;63319;46.046;17.802;2023-03-09T01:55:55;20.81;44.50
74792;SHT30;63319;46.046;17.802;2023-03-09T01:58:59;20.79;44.46
74792;SHT30;63319;46.046;17.802;2023-03-09T02:02:03;20.79;44.36
74792;SHT30;63319;46.046;17.802;2023-03-09T02:05:11;20.81;44.34
74792;SHT30;63319;46.046;17.802;2023-03-09T02:08:15;20.82;44.18
74792;SHT30;63319;46.046;17.802;2023-03-09T02:11:20;20.81;44.38
74792;SHT30;63319;46.046;17.802;2023-03-09T02:14:23;20.81;44.40
74792;SHT30;63319;46.046;17.802;2023-03-09T02:17:27;20.78;44.63
74792;SHT30;63319;46.046;17.802;2023-03-09T02:20:42;20.79;44.42
74792;SHT30;63319;46.046;17.802;2023-03-09T02:27:18;20.78;44.40
74792;SHT30;63319;46.046;17.802;2023-03-09T02:30:24;20.84;44.58
74792;SHT30;63319;46.046;17.802;2023-03-09T02:33:29;20.77;44.41
74792;SHT30;63319;46.046;17.802;2023-03-09T02:36:34;20.81;44.34
74792;SHT30;63319;46.046;17.802;2023-03-09T02:39:42;20.78;44.08
74792;SHT30;63319;46.046;17.802;2023-03-09T02:42:47;20.78;44.41
74792;SHT30;63319;46.046;17.802;2023-03-09T02:45:54;20.77;44.34
74792;SHT30;63319;46.046;17.802;2023-03-09T02:48:58;20.78;44.40
74792;SHT30;63319;46.046;17.802;2023-03-09T02:52:01;20.78;44.40
74792;SHT30;63319;46.046;17.802;2023-03-09T02:55:08;20.77;44.28
74792;SHT30;63319;46.046;17.802;2023-03-09T02:58:12;20.75;44.01
74792;SHT30;63319;46.046;17.802;2023-03-09T03:01:16;20.78;44.52
74792;SHT30;63319;46.046;17.802;2023-03-09T03:04:19;20.77;44.21
74792;SHT30;63319;46.046;17.802;2023-03-09T03:07:22;20.78;44.47
74792;SHT30;63319;46.046;17.802;2023-03-09T03:10:26;20.77;44.54
74792;SHT30;63319;46.046;17.802;2023-03-09T03:13:32;20.77;44.45
74792;SHT30;63319;46.046;17.802;2023-03-09T03:16:36;20.78;44.41
74792;SHT30;63319;46.046;17.802;2023-03-09T03:19:40;20.75;44.40
74792;SHT30;63319;46.046;17.802;2023-03-09T03:22:43;20.75;44.53
74792;SHT30;63319;46.046;17.802;2023-03-09T03:25:47;20.77;44.15
74792;SHT30;63319;46.046;17.802;2023-03-09T03:28:50;20.74;44.50
74792;SHT30;63319;46.046;17.802;2023-03-09T03:31:58;20.74;44.48
74792;SHT30;63319;46.046;17.802;2023-03-09T03:35:02;20.74;44.41
74792;SHT30;63319;46.046;17.802;2023-03-09T03:38:06;20.71;44.37
74792;SHT30;63319;46.046;17.802;2023-03-09T03:41:09;20.71;44.27
74792;SHT30;63319;46.046;17.802;2023-03-09T03:44:15;20.72;44.66
74792;SHT30;63319;46.046;17.802;2023-03-09T03:47:19;20.71;44.60
74792;SHT30;63319;46.046;17.802;2023-03-09T03:50:22;20.72;44.62
74792;SHT30;63319;46.046;17.802;2023-03-09T03:53:33;20.74;44.52
74792;SHT30;63319;46.046;17.802;2023-03-09T03:56:36;20.69;44.37
74792;SHT30;63319;46.046;17.802;2023-03-09T03:59:44;20.74;44.00
74792;SHT30;63319;46.046;17.802;2023-03-09T04:02:47;20.72;44.09
74792;SHT30;63319;46.046;17.802;2023-03-09T04:05:55;20.69;44.38
74792;SHT30;63319;46.046;17.802;2023-03-09T04:08:58;20.69;44.38
74792;SHT30;63319;46.046;17.802;2023-03-09T04:12:02;20.68;44.31
74792;SHT30;63319;46.046;17.802;2023-03-09T04:15:06;20.68;44.32
74792;SHT30;63319;46.046;17.802;2023-03-09T04:18:10;20.71;44.37
74792;SHT30;63319;46.046;17.802;2023-03-09T04:21:13;20.69;44.37
74792;SHT30;63319;46.046;17.802;2023-03-09T04:24:17;20.69;44.55
74792;SHT30;63319;46.046;17.802;2023-03-09T04:27:20;20.68;44.39
74792;SHT30;63319;46.046;17.802;2023-03-09T04:30:47;20.71;44.30
74792;SHT30;63319;46.046;17.802;2023-03-09T04:33:50;20.71;44.61
74792;SHT30;63319;46.046;17.802;2023-03-09T04:36:57;20.72;44.39
74792;SHT30;63319;46.046;17.802;2023-03-09T04:40:00;20.72;44.47
74792;SHT30;63319;46.046;17.802;2023-03-09T04:43:05;20.74;44.42
74792;SHT30;63319;46.046;17.802;2023-03-09T04:46:09;20.74;44.32
74792;SHT30;63319;46.046;17.802;2023-03-09T04:49:13;20.72;44.45
74792;SHT30;63319;46.046;17.802;2023-03-09T04:52:17;20.75;44.45
74792;SHT30;63319;46.046;17.802;2023-03-09T04:55:21;20.75;44.32
74792;SHT30;63319;46.046;17.802;2023-03-09T04:58:24;20.75;44.51
74792;SHT30;63319;46.046;17.802;2023-03-09T05:01:29;20.74;44.44
74792;SHT30;63319;46.046;17.802;2023-03-09T05:04:35;20.77;44.62
74792;SHT30;63319;46.046;17.802;2023-03-09T05:07:40;20.77;44.44
74792;SHT30;63319;46.046;17.802;2023-03-09T05:10:44;20.77;44.21
74792;SHT30;63319;46.046;17.802;2023-03-09T05:13:51;20.78;44.46
74792;SHT30;63319;46.046;17.802;2023-03-09T05:16:56;20.75;44.48
74792;SHT30;63319;46.046;17.802;2023-03-09T05:20:01;20.77;44.19
74792;SHT30;63319;46.046;17.802;2023-03-09T05:23:04;20.78;44.20
74792;SHT30;63319;46.046;17.802;2023-03-09T05:26:07;20.79;44.47
74792;SHT30;63319;46.046;17.802;2023-03-09T05:29:12;20.77;44.54
74792;SHT30;63319;46.046;17.802;2023-03-09T05:32:16;20.77;44.29
74792;SHT30;63319;46.046;17.802;2023-03-09T05:35:20;20.78;44.46
74792;SHT30;63319;46.046;17.802;2023-03-09T05:38:23;20.77;44.35
74792;SHT30;63319;46.046;17.802;2023-03-09T05:41:28;20.82;44.22
74792;SHT30;63319;46.046;17.802;2023-03-09T05:44:36;20.78;44.22
74792;SHT30;63319;46.046;17.802;2023-03-09T05:47:40;20.81;44.00
74792;SHT30;63319;46.046;17.802;2023-03-09T05:50:42;20.81;44.32
74792;SHT30;63319;46.046;17.802;2023-03-09T05:53:45;20.79;44.33
74792;SHT30;63319;46.046;17.802;2023-03-09T05:56:48;20.82;44.09
74792;SHT30;63319;46.046;17.802;2023-03-09T05:59:55;20.85;44.40
74792;SHT30;63319;46.046;17.802;2023-03-09T06:02:58;20.87;44.19
74792;SHT30;63319;46.046;17.802;2023-03-09T06:06:09;20.87;44.02
74792;SHT30;63319;46.046;17.802;2023-03-09T06:09:16;20.84;44.11
74792;SHT30;63319;46.046;17.802;2023-03-09T06:12:18;20.87;44.11
74792;SHT30;63319;46.046;17.802;2023-03-09T06:15:24;20.88;44.17
74792;SHT30;63319;46.046;17.802;2023-03-09T06:18:28;20.91;44.00
74792;SHT30;63319;46.046;17.802;2023-03-09T06:21:33;20.89;44.09
74792;SHT30;63319;46.046;17.802;2023-03-09T06:24:38;20.92;44.21
74792;SHT30;63319;46.046;17.802;2023-03-09T06:27:42;20.95;44.11
74792;SHT30;63319;46.046;17.802;2023-03-09T06:30:47;20.96;44.12
74792;SHT30;63319;46.046;17.802;2023-03-09T06:33:50;20.98;43.80
74792;SHT30;63319;46.046;17.802;2023-03-09T06:36:54;20.99;43.56
74792;SHT30;63319;46.046;17.802;2023-03-09T06:39:57;21.00;43.66
74792;SHT30;63319;46.046;17.802;2023-03-09T06:43:01;20.96;43.78
74792;SHT30;63319;46.046;17.802;2023-03-09T06:46:04;21.00;43.79
74792;SHT30;63319;46.046;17.802;2023-03-09T06:49:08;21.00;44.01
74792;SHT30;63319;46.046;17.802;2023-03-09T06:52:12;21.00;43.79
74792;SHT30;63319;46.046;17.802;2023-03-09T06:55:16;20.99;44.03
74792;SHT30;63319;46.046;17.802;2023-03-09T06:58:29;21.03;44.29
74792;SHT30;63319;46.046;17.802;2023-03-09T07:01:34;21.03;44.47
74792;SHT30;63319;46.046;17.802;2023-03-09T07:04:37;21.03;44.50
74792;SHT30;63319;46.046;17.802;2023-03-09T07:07:40;21.02;44.30
74792;SHT30;63319;46.046;17.802;2023-03-09T07:10:46;21.05;44.66
74792;SHT30;63319;46.046;17.802;2023-03-09T07:13:49;21.05;44.27
74792;SHT30;63319;46.046;17.802;2023-03-09T07:16:53;21.08;44.45
74792;SHT30;63319;46.046;17.802;2023-03-09T07:19:56;21.08;44.52
74792;SHT30;63319;46.046;17.802;2023-03-09T07:23:02;21.10;44.50
74792;SHT30;63319;46.046;17.802;2023-03-09T07:26:05;21.13;44.63
74792;SHT30;63319;46.046;17.802;2023-03-09T07:29:08;21.16;44.27
74792;SHT30;63319;46.046;17.802;2023-03-09T07:32:11;21.20;44.48
74792;SHT30;63319;46.046;17.802;2023-03-09T07:35:14;21.23;44.46
74792;SHT30;63319;46.046;17.802;2023-03-09T07:38:16;21.25;44.33
74792;SHT30;63319;46.046;17.802;2023-03-09T07:41:19;21.30;44.32
74792;SHT30;63319;46.046;17.802;2023-03-09T07:44:22;21.30;44.54
74792;SHT30;63319;46.046;17.802;2023-03-09T07:47:25;21.35;44.74
74792;SHT30;63319;46.046;17.802;2023-03-09T07:50:28;21.33;44.82
74792;SHT30;63319;46.046;17.802;2023-03-09T07:53:33;21.36;45.22
74792;SHT30;63319;46.046;17.802;2023-03-09T07:56:36;21.42;45.39
74792;SHT30;63319;46.046;17.802;2023-03-09T07:59:40;21.43;45.49
74792;SHT30;63319;46.046;17.802;2023-03-09T08:02:43;21.44;45.72
74792;SHT30;63319;46.046;17.802;2023-03-09T08:05:46;21.47;45.88
74792;SHT30;63319;46.046;17.802;2023-03-09T08:08:50;21.50;45.97
74792;SHT30;63319;46.046;17.802;2023-03-09T08:11:53;21.54;46.04
74792;SHT30;63319;46.046;17.802;2023-03-09T08:14:56;21.56;46.11
74792;SHT30;63319;46.046;17.802;2023-03-09T08:17:59;21.60;46.29
74792;SHT30;63319;46.046;17.802;2023-03-09T08:21:07;21.65;46.37
74792;SHT30;63319;46.046;17.802;2023-03-09T08:24:12;21.70;46.45
74792;SHT30;63319;46.046;17.802;2023-03-09T08:27:15;21.77;46.50
74792;SHT30;63319;46.046;17.802;2023-03-09T08:30:19;21.84;46.53
74792;SHT30;63319;46.046;17.802;2023-03-09T08:33:23;21.92;46.38
74792;SHT30;63319;46.046;17.802;2023-03-09T08:36:26;21.95;46.43
74792;SHT30;63319;46.046;17.802;2023-03-09T08:39:29;22.02;46.40
74792;SHT30;63319;46.046;17.802;2023-03-09T08:42:32;22.05;46.21
74792;SHT30;63319;46.046;17.802;2023-03-09T08:45:37;22.13;46.25
74792;SHT30;63319;46.046;17.802;2023-03-09T08:48:40;22.12;46.59
74792;SHT30;63319;46.046;17.802;2023-03-09T08:51:44;22.12;46.65
74792;SHT30;63319;46.046;17.802;2023-03-09T08:54:47;22.13;46.86
74792;SHT30;63319;46.046;17.802;2023-03-09T08:57:51;22.70;45.52
74792;SHT30;63319;46.046;17.802;2023-03-09T09:00:54;23.34;44.25
74792;SHT30;63319;46.046;17.802;2023-03-09T09:03:57;24.10;42.70
74792;SHT30;63319;46.046;17.802;2023-03-09T09:07:00;24.55;41.65
74792;SHT30;63319;46.046;17.802;2023-03-09T09:10:03;24.96;40.84
74792;SHT30;63319;46.046;17.802;2023-03-09T09:13:09;25.24;40.34
74792;SHT30;63319;46.046;17.802;2023-03-09T09:16:13;25.51;39.88
74792;SHT30;63319;46.046;17.802;2023-03-09T09:19:17;25.74;39.52
74792;SHT30;63319;46.046;17.802;2023-03-09T09:22:20;25.87;39.26
74792;SHT30;63319;46.046;17.802;2023-03-09T09:25:23;26.05;39.05
74792;SHT30;63319;46.046;17.802;2023-03-09T09:28:27;26.19;38.83
74792;SHT30;63319;46.046;17.802;2023-03-09T09:31:31;26.29;38.62
74792;SHT30;63319;46.046;17.802;2023-03-09T09:34:36;26.37;38.55
74792;SHT30;63319;46.046;17.802;2023-03-09T09:37:39;26.54;37.96
74792;SHT30;63319;46.046;17.802;2023-03-09T09:40:44;26.61;38.00
74792;SHT30;63319;46.046;17.802;2023-03-09T09:43:49;26.84;37.04
74792;SHT30;63319;46.046;17.802;2023-03-09T09:46:54;26.77;37.08
74792;SHT30;63319;46.046;17.802;2023-03-09T09:50:00;26.87;36.99
74792;SHT30;63319;46.046;17.802;2023-03-09T09:56:21;26.83;37.04
74792;SHT30;63319;46.046;17.802;2023-03-09T10:02:57;26.87;36.75
74792;SHT30;63319;46.046;17.802;2023-03-09T10:06:25;26.53;37.28
74792;SHT30;63319;46.046;17.802;2023-03-09T10:09:31;26.61;37.96
74792;SHT30;63319;46.046;17.802;2023-03-09T10:12:42;26.16;38.35
74792;SHT30;63319;46.046;17.802;2023-03-09T10:15:45;26.16;38.24
74792;SHT30;63319;46.046;17.802;2023-03-09T10:18:59;25.95;38.70
74792;SHT30;63319;46.046;17.802;2023-03-09T10:22:24;26.14;38.50
74792;SHT30;63319;46.046;17.802;2023-03-09T10:25:30;25.92;38.89
74792;SHT30;63319;46.046;17.802;2023-03-09T10:28:42;25.58;39.51
74792;SHT30;63319;46.046;17.802;2023-03-09T10:31:52;25.46;39.67
74792;SHT30;63319;46.046;17.802;2023-03-09T10:38:14;25.12;40.11
74792;SHT30;63319;46.046;17.802;2023-03-09T10:41:19;25.02;40.15
74792;SHT30;63319;46.046;17.802;2023-03-09T10:44:23;24.96;40.44
74792;SHT30;63319;46.046;17.802;2023-03-09T10:51:04;24.93;40.82
74792;SHT30;63319;46.046;17.802;2023-03-09T10:54:26;25.02;40.66
74792;SHT30;63319;46.046;17.802;2023-03-09T10:57:30;24.99;40.47
74792;SHT30;63319;46.046;17.802;2023-03-09T11:00:34;24.92;40.25
74792;SHT30;63319;46.046;17.802;2023-03-09T11:03:41;24.93;40.23
74792;SHT30;63319;46.046;17.802;2023-03-09T11:10:32;24.89;40.10
74792;SHT30;63319;46.046;17.802;2023-03-09T11:13:36;25.16;39.40
74792;SHT30;63319;46.046;17.802;2023-03-09T11:16:53;24.96;39.79
74792;SHT30;63319;46.046;17.802;2023-03-09T11:27:27;25.53;37.93
74792;SHT30;63319;46.046;17.802;2023-03-09T11:30:38;25.40;37.95
74792;SHT30;63319;46.046;17.802;2023-03-09T11:33:42;25.40;38.05
74792;SHT30;63319;46.046;17.802;2023-03-09T11:36:50;25.51;37.73
74792;SHT30;63319;46.046;17.802;2023-03-09T11:40:15;25.77;37.24
74792;SHT30;63319;46.046;17.802;2023-03-09T11:43:29;25.73;37.27
74792;SHT30;63319;46.046;17.802;2023-03-09T11:46:34;25.82;37.13
74792;SHT30;63319;46.046;17.802;2023-03-09T11:49:41;26.02;36.71
74792;SHT30;63319;46.046;17.802;2023-03-09T11:53:05;26.50;36.03
74792;SHT30;63319;46.046;17.802;2023-03-09T12:06:07;25.99;36.92
74792;SHT30;63319;46.046;17.802;2023-03-09T12:09:45;25.95;37.03
74792;SHT30;63319;46.046;17.802;2023-03-09T12:13:24;26.32;36.34
74792;SHT30;63319;46.046;17.802;2023-03-09T12:16:33;26.76;35.86
74792;SHT30;63319;46.046;17.802;2023-03-09T12:19:37;26.33;36.41
74792;SHT30;63319;46.046;17.802;2023-03-09T12:22:43;26.49;36.27
74792;SHT30;63319;46.046;17.802;2023-03-09T12:25:55;26.87;35.51
74792;SHT30;63319;46.046;17.802;2023-03-09T12:29:00;26.76;35.57
74792;SHT30;63319;46.046;17.802;2023-03-09T12:38:24;25.61;37.51
74792;SHT30;63319;46.046;17.802;2023-03-09T12:41:59;25.48;37.73
74792;SHT30;63319;46.046;17.802;2023-03-09T12:45:30;25.24;38.14
74792;SHT30;63319;46.046;17.802;2023-03-09T12:48:33;25.10;38.45
74792;SHT30;63319;46.046;17.802;2023-03-09T12:51:40;24.99;38.54
74792;SHT30;63319;46.046;17.802;2023-03-09T12:55:00;24.86;38.83
74792;SHT30;63319;46.046;17.802;2023-03-09T13:01:30;24.73;38.97
74792;SHT30;63319;46.046;17.802;2023-03-09T13:04:34;24.68;39.13
74792;SHT30;63319;46.046;17.802;2023-03-09T13:07:37;24.64;39.12
74792;SHT30;63319;46.046;17.802;2023-03-09T13:10:40;24.55;39.34
74792;SHT30;63319;46.046;17.802;2023-03-09T13:13:47;24.52;39.21
74792;SHT30;63319;46.046;17.802;2023-03-09T13:16:55;24.43;39.44
74792;SHT30;63319;46.046;17.802;2023-03-09T13:23:23;24.35;39.54
74792;SHT30;63319;46.046;17.802;2023-03-09T13:26:27;24.28;39.54
74792;SHT30;63319;46.046;17.802;2023-03-09T13:29:32;24.31;39.40
74792;SHT30;63319;46.046;17.802;2023-03-09T13:36:15;24.27;39.44
74792;SHT30;63319;46.046;17.802;2023-03-09T13:39:23;24.23;39.46
74792;SHT30;63319;46.046;17.802;2023-03-09T13:42:29;24.30;39.32
74792;SHT30;63319;46.046;17.802;2023-03-09T13:45:33;24.37;39.12
74792;SHT30;63319;46.046;17.802;2023-03-09T13:48:42;24.33;39.21
74792;SHT30;63319;46.046;17.802;2023-03-09T13:51:48;24.41;38.97
74792;SHT30;63319;46.046;17.802;2023-03-09T13:54:59;24.34;39.09
74792;SHT30;63319;46.046;17.802;2023-03-09T13:58:16;24.27;39.16
74792;SHT30;63319;46.046;17.802;2023-03-09T14:01:30;24.21;39.29
74792;SHT30;63319;46.046;17.802;2023-03-09T14:04:46;24.23;39.62
74792;SHT30;63319;46.046;17.802;2023-03-09T14:07:53;24.14;39.64
74792;SHT30;63319;46.046;17.802;2023-03-09T14:11:03;24.13;39.92
74792;SHT30;63319;46.046;17.802;2023-03-09T14:14:25;24.04;40.24
74792;SHT30;63319;46.046;17.802;2023-03-09T14:17:28;23.99;40.88
74792;SHT30;63319;46.046;17.802;2023-03-09T14:20:38;23.92;41.38
74792;SHT30;63319;46.046;17.802;2023-03-09T14:23:43;23.82;68.60
74792;SHT30;63319;46.046;17.802;2023-03-09T14:26:46;23.66;44.18
74792;SHT30;63319;46.046;17.802;2023-03-09T14:29:50;23.56;42.31
74792;SHT30;63319;46.046;17.802;2023-03-09T14:33:04;23.55;43.20
74792;SHT30;63319;46.046;17.802;2023-03-09T14:36:18;23.59;44.09
74792;SHT30;63319;46.046;17.802;2023-03-09T14:39:30;23.61;45.09
74792;SHT30;63319;46.046;17.802;2023-03-09T14:42:38;23.63;45.81
74792;SHT30;63319;46.046;17.802;2023-03-09T14:45:41;23.62;45.75
74792;SHT30;63319;46.046;17.802;2023-03-09T14:48:48;23.61;46.13
74792;SHT30;63319;46.046;17.802;2023-03-09T14:51:51;23.62;46.42
74792;SHT30;63319;46.046;17.802;2023-03-09T14:54:54;23.63;46.11
74792;SHT30;63319;46.046;17.802;2023-03-09T14:57:57;23.65;46.05
74792;SHT30;63319;46.046;17.802;2023-03-09T15:01:00;23.62;46.42
74792;SHT30;63319;46.046;17.802;2023-03-09T15:04:03;23.61;46.27
74792;SHT30;63319;46.046;17.802;2023-03-09T15:07:06;23.59;46.23
74792;SHT30;63319;46.046;17.802;2023-03-09T15:10:11;23.59;46.32
74792;SHT30;63319;46.046;17.802;2023-03-09T15:13:14;23.58;46.20
74792;SHT30;63319;46.046;17.802;2023-03-09T15:16:16;23.56;46.21
74792;SHT30;63319;46.046;17.802;2023-03-09T15:19:21;23.54;45.70
74792;SHT30;63319;46.046;17.802;2023-03-09T15:22:23;23.49;46.08
74792;SHT30;63319;46.046;17.802;2023-03-09T15:25:26;23.49;46.04
74792;SHT30;63319;46.046;17.802;2023-03-09T15:28:30;23.46;46.23
74792;SHT30;63319;46.046;17.802;2023-03-09T15:31:32;23.45;46.33
74792;SHT30;63319;46.046;17.802;2023-03-09T15:34:37;23.44;46.35
74792;SHT30;63319;46.046;17.802;2023-03-09T15:37:40;23.39;46.37
74792;SHT30;63319;46.046;17.802;2023-03-09T15:40:46;23.41;46.33
74792;SHT30;63319;46.046;17.802;2023-03-09T15:43:49;23.35;46.29
74792;SHT30;63319;46.046;17.802;2023-03-09T15:46:53;23.37;46.14
74792;SHT30;63319;46.046;17.802;2023-03-09T15:49:56;23.31;46.21
74792;SHT30;63319;46.046;17.802;2023-03-09T15:52:59;23.27;46.17
74792;SHT30;63319;46.046;17.802;2023-03-09T15:56:06;23.27;46.13
74792;SHT30;63319;46.046;17.802;2023-03-09T15:59:10;23.22;46.14
74792;SHT30;63319;46.046;17.802;2023-03-09T16:02:13;23.19;46.08
74792;SHT30;63319;46.046;17.802;2023-03-09T16:05:16;23.18;45.88
74792;SHT30;63319;46.046;17.802;2023-03-09T16:08:19;23.15;45.92
74792;SHT30;63319;46.046;17.802;2023-03-09T16:11:21;23.14;45.94
74792;SHT30;63319;46.046;17.802;2023-03-09T16:14:24;23.10;45.89
74792;SHT30;63319;46.046;17.802;2023-03-09T16:17:27;23.07;46.02
74792;SHT30;63319;46.046;17.802;2023-03-09T16:20:30;23.04;45.57
74792;SHT30;63319;46.046;17.802;2023-03-09T16:23:33;23.00;45.74
74792;SHT30;63319;46.046;17.802;2023-03-09T16:26:36;22.97;46.00
74792;SHT30;63319;46.046;17.802;2023-03-09T16:29:39;22.94;45.88
74792;SHT30;63319;46.046;17.802;2023-03-09T16:32:42;22.93;46.02
74792;SHT30;63319;46.046;17.802;2023-03-09T16:35:45;22.89;46.13
74792;SHT30;63319;46.046;17.802;2023-03-09T16:38:48;22.87;46.11
74792;SHT30;63319;46.046;17.802;2023-03-09T16:41:54;22.84;45.92
74792;SHT30;63319;46.046;17.802;2023-03-09T16:44:57;22.79;46.14
74792;SHT30;63319;46.046;17.802;2023-03-09T16:48:00;22.79;46.18
74792;SHT30;63319;46.046;17.802;2023-03-09T16:51:03;22.76;46.17
74792;SHT30;63319;46.046;17.802;2023-03-09T16:54:06;22.73;46.08
74792;SHT30;63319;46.046;17.802;2023-03-09T16:57:09;22.70;46.18
74792;SHT30;63319;46.046;17.802;2023-03-09T17:00:13;22.67;46.07
74792;SHT30;63319;46.046;17.802;2023-03-09T17:03:17;22.64;46.24
74792;SHT30;63319;46.046;17.802;2023-03-09T17:06:21;22.63;46.13
74792;SHT30;63319;46.046;17.802;2023-03-09T17:09:24;22.59;46.20
74792;SHT30;63319;46.046;17.802;2023-03-09T17:12:45;22.59;46.24
74792;SHT30;63319;46.046;17.802;2023-03-09T17:15:48;22.56;46.21
74792;SHT30;63319;46.046;17.802;2023-03-09T17:18:55;22.56;46.28
74792;SHT30;63319;46.046;17.802;2023-03-09T17:21:59;22.53;46.34
74792;SHT30;63319;46.046;17.802;2023-03-09T17:25:02;22.52;46.29
74792;SHT30;63319;46.046;17.802;2023-03-09T17:28:07;22.49;46.34
74792;SHT30;63319;46.046;17.802;2023-03-09T17:31:23;22.46;46.31
74792;SHT30;63319;46.046;17.802;2023-03-09T17:34:26;22.45;46.32
74792;SHT30;63319;46.046;17.802;2023-03-09T17:37:29;22.43;46.38
74792;SHT30;63319;46.046;17.802;2023-03-09T17:40:33;22.41;46.39
74792;SHT30;63319;46.046;17.802;2023-03-09T17:43:36;22.41;46.30
74792;SHT30;63319;46.046;17.802;2023-03-09T17:46:41;22.39;46.43
74792;SHT30;63319;46.046;17.802;2023-03-09T17:49:44;22.36;46.34
74792;SHT30;63319;46.046;17.802;2023-03-09T17:52:47;22.33;46.25
74792;SHT30;63319;46.046;17.802;2023-03-09T17:55:50;22.32;46.37
74792;SHT30;63319;46.046;17.802;2023-03-09T17:58:54;22.33;46.35
74792;SHT30;63319;46.046;17.802;2023-03-09T18:01:57;22.29;46.42
74792;SHT30;63319;46.046;17.802;2023-03-09T18:05:00;22.29;46.54
74792;SHT30;63319;46.046;17.802;2023-03-09T18:08:04;22.28;46.44
74792;SHT30;63319;46.046;17.802;2023-03-09T18:11:16;22.25;46.45
74792;SHT30;63319;46.046;17.802;2023-03-09T18:14:20;22.25;46.35
74792;SHT30;63319;46.046;17.802;2023-03-09T18:17:24;22.22;46.38
74792;SHT30;63319;46.046;17.802;2023-03-09T18:20:28;22.19;46.41
74792;SHT30;63319;46.046;17.802;2023-03-09T18:23:33;22.19;46.30
74792;SHT30;63319;46.046;17.802;2023-03-09T18:26:37;22.19;46.35
74792;SHT30;63319;46.046;17.802;2023-03-09T18:29:42;22.21;46.34
74792;SHT30;63319;46.046;17.802;2023-03-09T18:32:46;22.12;46.30
74792;SHT30;63319;46.046;17.802;2023-03-09T18:36:03;22.12;46.37
74792;SHT30;63319;46.046;17.802;2023-03-09T18:39:06;22.08;46.48
74792;SHT30;63319;46.046;17.802;2023-03-09T18:42:11;22.06;46.53
74792;SHT30;63319;46.046;17.802;2023-03-09T18:45:14;22.04;46.52
74792;SHT30;63319;46.046;17.802;2023-03-09T18:48:34;22.02;46.41
74792;SHT30;63319;46.046;17.802;2023-03-09T18:51:37;22.01;46.59
74792;SHT30;63319;46.046;17.802;2023-03-09T18:54:41;21.97;46.52
74792;SHT30;63319;46.046;17.802;2023-03-09T18:57:46;21.97;46.63
74792;SHT30;63319;46.046;17.802;2023-03-09T19:00:50;21.94;46.61
74792;SHT30;63319;46.046;17.802;2023-03-09T19:03:54;21.92;46.62
74792;SHT30;63319;46.046;17.802;2023-03-09T19:07:01;21.92;46.80
74792;SHT30;63319;46.046;17.802;2023-03-09T19:10:06;21.92;46.89
74792;SHT30;63319;46.046;17.802;2023-03-09T19:13:10;21.91;46.88
74792;SHT30;63319;46.046;17.802;2023-03-09T19:16:16;21.91;46.75
74792;SHT30;63319;46.046;17.802;2023-03-09T19:19:22;21.90;46.81
74792;SHT30;63319;46.046;17.802;2023-03-09T19:22:26;21.87;46.83
74792;SHT30;63319;46.046;17.802;2023-03-09T19:25:30;21.85;46.61
74792;SHT30;63319;46.046;17.802;2023-03-09T19:28:36;21.83;46.73
74792;SHT30;63319;46.046;17.802;2023-03-09T19:31:43;21.85;46.77
74792;SHT30;63319;46.046;17.802;2023-03-09T19:34:46;21.83;46.82
74792;SHT30;63319;46.046;17.802;2023-03-09T19:37:53;21.81;46.75
74792;SHT30;63319;46.046;17.802;2023-03-09T19:41:05;21.80;46.77
74792;SHT30;63319;46.046;17.802;2023-03-09T19:44:11;21.80;46.73
74792;SHT30;63319;46.046;17.802;2023-03-09T19:47:15;21.77;46.70
74792;SHT30;63319;46.046;17.802;2023-03-09T19:50:19;21.77;46.58
74792;SHT30;63319;46.046;17.802;2023-03-09T19:53:23;21.75;46.71
74792;SHT30;63319;46.046;17.802;2023-03-09T19:56:31;21.73;46.81
74792;SHT30;63319;46.046;17.802;2023-03-09T19:59:37;21.73;46.90
74792;SHT30;63319;46.046;17.802;2023-03-09T20:02:43;21.73;46.74
74792;SHT30;63319;46.046;17.802;2023-03-09T20:05:46;21.71;47.00
74792;SHT30;63319;46.046;17.802;2023-03-09T20:08:55;21.70;46.77
74792;SHT30;63319;46.046;17.802;2023-03-09T20:11:59;21.68;46.83